Time,TemperatureF,DewpointF,PressureIn,WindDirection,WindDirectionDegrees,WindSpeedMPH,WindSpeedGustMPH,Humidity,HourlyPrecipIn,Conditions,Clouds,dailyrainin,SoftwareType,DateUTC
2013-12-11 00:01:00,21.3,10.7,30.07,West,268,2.0,3.5,63,0.00,CLR,,0.00,WeatherDisplay:10.37,2013-12-11 05:01:00,
2013-12-11 00:02:00,21.3,10.7,30.08,WSW,258,8.1,8.1,63,0.00,CLR,,0.00,WeatherDisplay:10.37,2013-12-11 05:02:00,
2013-12-11 00:05:00,21.3,10.7,30.08,West,278,5.8,5.8,63,0.00,CLR,,0.00,WeatherDisplay:10.37,2013-12-11 05:05:00,
2013-12-11 00:10:00,21.5,10.8,30.08,NW,316,13.0,13.0,63,0.00,CLR,,0.00,WeatherDisplay:10.37,2013-12-11 05:10:00,
2013-12-11 00:15:00,21.6,10.6,30.08,WNW,285,9.2,9.2,62,0.00,CLR,,0.00,WeatherDisplay:10.37,2013-12-11 05:15:00,
2013-12-11 00:20:00,21.7,10.7,30.08,West,263,11.5,11.5,62,0.00,CLR,,0.00,WeatherDisplay:10.37,2013-12-11 05:20:00,
2013-12-11 00:25:00,21.8,10.8,30.08,NW,304,8.1,8.1,62,0.00,CLR,,0.00,WeatherDisplay:10.37,2013-12-11 05:25:00,
2013-12-11 00:30:00,21.9,10.5,30.08,WNW,287,15.0,15.0,61,0.00,CLR,,0.00,WeatherDisplay:10.37,2013-12-11 05:30:00,
2013-12-11 00:35:00,22.0,11.0,30.07,NE,48,9.2,9.2,62,0.00,CLR,,0.00,WeatherDisplay:10.37,2013-12-11 05:35:00,
2013-12-11 00:40:00,22.1,10.7,30.09,West,264,6.0,6.0,61,0.00,CLR,,0.00,WeatherDisplay:10.37,2013-12-11 05:40:00,
2013-12-11 00:46:00,22.1,11.1,30.08,WSW,258,4.6,5.4,62,0.00,CLR,,0.00,WeatherDisplay:10.37,2013-12-11 05:46:00,
2013-12-11 00:51:00,22.2,11.1,30.09,West,267,8.1,8.1,62,0.00,CLR,,0.00,WeatherDisplay:10.37,2013-12-11 05:51:00,
2013-12-11 00:56:00,22.2,10.8,30.09,SW,218,6.9,6.9,61,0.00,CLR,,0.00,WeatherDisplay:10.37,2013-12-11 05:56:00,
2013-12-11 01:01:00,22.3,10.9,30.09,West,281,6.9,6.9,61,0.00,CLR,,0.00,WeatherDisplay:10.37,2013-12-11 06:01:00,
2013-12-11 01:06:00,22.3,11.2,30.09,North,354,4.6,4.6,62,0.00,CLR,,0.00,WeatherDisplay:10.37,2013-12-11 06:06:00,
2013-12-11 01:11:00,22.2,11.1,30.10,WNW,283,4.6,4.6,62,0.00,CLR,,0.00,WeatherDisplay:10.37,2013-12-11 06:11:00,
2013-12-11 01:16:00,22.1,11.1,30.10,WNW,290,4.0,4.0,62,0.00,CLR,,0.00,WeatherDisplay:10.37,2013-12-11 06:16:00,
2013-12-11 01:21:00,22.0,11.3,30.10,North,353,10.4,10.4,63,0.00,CLR,,0.00,WeatherDisplay:10.37,2013-12-11 06:21:00,
2013-12-11 01:26:00,21.9,11.2,30.10,WSW,245,4.6,4.6,63,0.00,CLR,,0.00,WeatherDisplay:10.37,2013-12-11 06:26:00,
2013-12-11 01:31:00,21.8,11.1,30.10,North,6,4.0,4.0,63,0.00,CLR,,0.00,WeatherDisplay:10.37,2013-12-11 06:31:00,
2013-12-11 01:36:00,22.0,11.3,30.10,NNW,336,8.1,8.1,63,0.00,CLR,,0.00,WeatherDisplay:10.37,2013-12-11 06:36:00,
2013-12-11 01:41:00,21.9,11.6,30.10,SW,219,5.8,5.8,64,0.00,CLR,,0.00,WeatherDisplay:10.37,2013-12-11 06:41:00,
2013-12-11 01:46:00,21.9,11.6,30.10,WSW,248,3.5,3.5,64,0.00,CLR,,0.00,WeatherDisplay:10.37,2013-12-11 06:46:00,
2013-12-11 01:51:00,21.7,11.4,30.11,NW,312,8.1,8.1,64,0.00,CLR,,0.00,WeatherDisplay:10.37,2013-12-11 06:51:00,
2013-12-11 01:56:00,21.7,11.4,30.11,WNW,297,3.5,3.5,64,0.00,CLR,,0.00,WeatherDisplay:10.37,2013-12-11 06:56:00,
2013-12-11 02:01:00,21.7,11.4,30.11,WSW,253,6.9,6.9,64,0.00,CLR,,0.00,WeatherDisplay:10.37,2013-12-11 07:01:00,
2013-12-11 02:06:00,21.9,11.6,30.12,SSE,156,0.0,0.0,64,0.00,CLR,,0.00,WeatherDisplay:10.37,2013-12-11 07:06:00,
2013-12-11 02:11:00,21.6,11.6,30.12,WNW,283,3.5,3.5,65,0.00,CLR,,0.00,WeatherDisplay:10.37,2013-12-11 07:11:00,
2013-12-11 02:16:00,21.6,11.6,30.12,ENE,59,2.3,2.3,65,0.00,CLR,,0.00,WeatherDisplay:10.37,2013-12-11 07:16:00,
2013-12-11 02:21:00,21.5,11.9,30.12,West,259,0.0,0.0,66,0.00,CLR,,0.00,WeatherDisplay:10.37,2013-12-11 07:21:00,
2013-12-11 02:26:00,21.5,11.9,30.13,WSW,238,3.5,3.5,66,0.00,CLR,,0.00,WeatherDisplay:10.37,2013-12-11 07:26:00,
2013-12-11 02:31:00,21.4,11.5,30.13,West,259,3.5,3.5,65,0.00,CLR,,0.00,WeatherDisplay:10.37,2013-12-11 07:31:00,
2013-12-11 02:36:00,21.4,11.8,30.13,WSW,239,2.3,2.3,66,0.00,CLR,,0.00,WeatherDisplay:10.37,2013-12-11 07:36:00,
2013-12-11 02:41:00,21.3,11.7,30.13,SW,225,0.0,0.0,66,0.00,CLR,,0.00,WeatherDisplay:10.37,2013-12-11 07:41:00,
2013-12-11 02:46:00,21.0,11.8,30.13,NNE,25,0.0,0.1,67,0.00,CLR,,0.00,WeatherDisplay:10.37,2013-12-11 07:46:00,
2013-12-11 02:51:00,21.1,11.5,30.13,SW,214,3.5,3.5,66,0.00,CLR,,0.00,WeatherDisplay:10.37,2013-12-11 07:51:00,
2013-12-11 02:56:00,20.9,11.7,30.13,SW,232,0.0,0.0,67,0.00,CLR,,0.00,WeatherDisplay:10.37,2013-12-11 07:56:00,
2013-12-11 03:01:00,20.6,11.4,30.14,North,359,0.0,0.0,67,0.00,CLR,,0.00,WeatherDisplay:10.37,2013-12-11 08:01:00,
2013-12-11 03:06:00,20.5,11.6,30.14,NW,316,0.0,0.0,68,0.00,CLR,,0.00,WeatherDisplay:10.37,2013-12-11 08:06:00,
2013-12-11 03:11:00,20.3,11.4,30.13,WNW,283,0.0,0.0,68,0.00,CLR,,0.00,WeatherDisplay:10.37,2013-12-11 08:11:00,
2013-12-11 03:16:00,20.2,11.3,30.13,West,264,0.0,0.0,68,0.00,CLR,,0.00,WeatherDisplay:10.37,2013-12-11 08:16:00,
2013-12-11 03:21:00,20.1,11.2,30.14,NW,321,0.0,0.0,68,0.00,CLR,,0.00,WeatherDisplay:10.37,2013-12-11 08:21:00,
2013-12-11 03:26:00,20.0,11.1,30.14,NW,322,0.0,0.0,68,0.00,CLR,,0.00,WeatherDisplay:10.37,2013-12-11 08:26:00,
2013-12-11 03:31:00,20.1,11.2,30.14,West,280,1.1,1.1,68,0.00,CLR,,0.00,WeatherDisplay:10.37,2013-12-11 08:31:00,
2013-12-11 03:36:00,20.5,11.6,30.14,ESE,112,0.0,0.0,68,0.00,CLR,,0.00,WeatherDisplay:10.37,2013-12-11 08:36:00,
2013-12-11 03:41:00,20.8,11.6,30.14,West,280,1.1,1.1,67,0.00,CLR,,0.00,WeatherDisplay:10.37,2013-12-11 08:41:00,
2013-12-11 03:46:00,20.9,11.3,30.14,NNE,20,0.0,0.0,66,0.00,CLR,,0.00,WeatherDisplay:10.37,2013-12-11 08:46:00,
2013-12-11 03:51:00,20.9,11.3,30.14,NE,40,0.0,0.0,66,0.00,CLR,,0.00,WeatherDisplay:10.37,2013-12-11 08:51:00,
2013-12-11 03:56:00,20.9,11.3,30.14,SSW,212,3.5,3.5,66,0.00,CLR,,0.00,WeatherDisplay:10.37,2013-12-11 08:56:00,
2013-12-11 04:01:00,20.8,11.2,30.14,WSW,248,0.0,0.0,66,0.00,CLR,,0.00,WeatherDisplay:10.37,2013-12-11 09:01:00,
2013-12-11 04:06:00,20.9,11.7,30.14,East,90,0.0,0.0,67,0.00,CLR,,0.00,WeatherDisplay:10.37,2013-12-11 09:06:00,
2013-12-11 04:11:00,21.1,11.8,30.14,ENE,58,0.0,0.0,67,0.00,CLR,,0.00,WeatherDisplay:10.37,2013-12-11 09:11:00,
2013-12-11 04:16:00,21.2,11.9,30.14,NE,40,0.0,0.0,67,0.00,CLR,,0.00,WeatherDisplay:10.37,2013-12-11 09:16:00,
2013-12-11 04:21:00,21.3,12.0,30.15,West,266,0.0,0.0,67,0.00,CLR,,0.00,WeatherDisplay:10.37,2013-12-11 09:21:00,
2013-12-11 04:26:00,21.3,11.4,30.15,WSW,252,0.0,0.0,65,0.00,CLR,,0.00,WeatherDisplay:10.37,2013-12-11 09:26:00,
2013-12-11 04:31:00,21.5,11.5,30.15,West,273,4.6,4.6,65,0.00,CLR,,0.00,WeatherDisplay:10.37,2013-12-11 09:31:00,
2013-12-11 04:36:00,21.6,11.6,30.15,WSW,258,3.5,3.5,65,0.00,CLR,,0.00,WeatherDisplay:10.37,2013-12-11 09:36:00,
2013-12-11 04:41:00,21.8,12.2,30.15,North,1,2.0,2.0,66,0.00,CLR,,0.00,WeatherDisplay:10.37,2013-12-11 09:41:00,
2013-12-11 04:46:00,21.8,11.8,30.15,West,276,3.5,3.5,65,0.00,CLR,,0.00,WeatherDisplay:10.37,2013-12-11 09:46:00,
2013-12-11 04:51:00,21.8,11.8,30.15,SW,228,5.0,5.0,65,0.00,CLR,,0.00,WeatherDisplay:10.37,2013-12-11 09:51:00,
2013-12-11 04:56:00,21.8,12.2,30.16,SE,146,3.5,3.5,66,0.00,CLR,,0.00,WeatherDisplay:10.37,2013-12-11 09:56:00,
2013-12-11 05:01:00,21.8,12.2,30.15,West,262,3.5,3.5,66,0.00,CLR,,0.00,WeatherDisplay:10.37,2013-12-11 10:01:00,
2013-12-11 05:06:00,21.7,12.1,30.16,WNW,289,4.6,4.6,66,0.00,,,0.00,WeatherDisplay:10.37,2013-12-11 10:06:00,
2013-12-11 05:11:00,21.7,12.1,30.16,WNW,290,2.3,2.3,66,0.00,,,0.00,WeatherDisplay:10.37,2013-12-11 10:11:00,
2013-12-11 05:16:00,21.4,12.5,30.16,WSW,246,0.0,0.0,68,0.00,,,0.00,WeatherDisplay:10.37,2013-12-11 10:16:00,
2013-12-11 05:21:00,21.2,12.3,30.16,NNW,345,0.0,0.0,68,0.00,,,0.00,WeatherDisplay:10.37,2013-12-11 10:21:00,
2013-12-11 05:26:00,20.9,12.3,30.16,NW,305,0.0,0.0,69,0.00,,,0.00,WeatherDisplay:10.37,2013-12-11 10:26:00,
2013-12-11 05:31:00,20.7,12.1,30.16,West,266,0.0,0.0,69,0.00,,,0.00,WeatherDisplay:10.37,2013-12-11 10:31:00,
2013-12-11 05:36:00,20.5,12.3,30.17,West,274,1.1,1.1,70,0.00,,,0.00,WeatherDisplay:10.37,2013-12-11 10:36:00,
2013-12-11 05:41:00,20.5,12.3,30.17,NE,45,5.0,5.0,70,0.00,,,0.00,WeatherDisplay:10.37,2013-12-11 10:41:00,
2013-12-11 05:46:00,20.7,12.5,30.17,SW,235,3.5,3.5,70,0.00,,,0.00,WeatherDisplay:10.37,2013-12-11 10:46:00,
2013-12-11 05:51:00,20.6,12.4,30.17,West,270,2.3,2.3,70,0.00,,,0.00,WeatherDisplay:10.37,2013-12-11 10:51:00,
2013-12-11 05:56:00,20.5,12.3,30.17,SSW,193,3.0,3.0,70,0.00,,,0.00,WeatherDisplay:10.37,2013-12-11 10:56:00,
2013-12-11 06:01:00,20.2,12.3,30.18,SW,236,4.6,4.6,71,0.00,,,0.00,WeatherDisplay:10.37,2013-12-11 11:01:00,
2013-12-11 06:06:00,20.1,12.5,30.18,WSW,253,0.0,0.0,72,0.00,CLR,,0.00,WeatherDisplay:10.37,2013-12-11 11:06:00,
2013-12-11 06:11:00,20.1,12.5,30.18,SW,225,0.0,0.0,72,0.00,CLR,,0.00,WeatherDisplay:10.37,2013-12-11 11:11:00,
2013-12-11 06:16:00,20.1,12.5,30.18,SW,214,0.0,0.9,72,0.00,CLR,,0.00,WeatherDisplay:10.37,2013-12-11 11:16:00,
2013-12-11 06:21:00,20.0,12.7,30.18,SW,221,0.0,0.0,73,0.00,CLR,,0.00,WeatherDisplay:10.37,2013-12-11 11:21:00,
2013-12-11 06:26:00,19.8,12.5,30.18,WNW,285,2.3,2.3,73,0.00,CLR,,0.00,WeatherDisplay:10.37,2013-12-11 11:26:00,
2013-12-11 06:31:00,19.7,12.4,30.18,SSW,201,0.0,0.0,73,0.00,CLR,,0.00,WeatherDisplay:10.37,2013-12-11 11:31:00,
2013-12-11 06:36:00,19.6,12.3,30.18,WSW,240,0.0,0.0,73,0.00,CLR,,0.00,WeatherDisplay:10.37,2013-12-11 11:36:00,
2013-12-11 06:41:00,19.5,12.3,30.18,WSW,252,0.0,0.0,73,0.00,CLR,,0.00,WeatherDisplay:10.37,2013-12-11 11:41:00,
2013-12-11 06:46:00,19.4,12.2,30.18,East,83,0.0,0.0,73,0.00,CLR,,0.00,WeatherDisplay:10.37,2013-12-11 11:46:00,
2013-12-11 06:51:00,19.3,12.4,30.19,SE,139,0.0,0.0,74,0.00,CLR,,0.00,WeatherDisplay:10.37,2013-12-11 11:51:00,
2013-12-11 06:56:00,19.2,12.3,30.19,West,278,0.0,0.0,74,0.00,CLR,,0.00,WeatherDisplay:10.37,2013-12-11 11:56:00,
2013-12-11 07:01:00,19.5,12.3,30.19,West,278,1.1,1.1,73,0.00,CLR,,0.00,WeatherDisplay:10.37,2013-12-11 12:01:00,
2013-12-11 07:06:00,19.6,12.3,30.19,NE,56,0.0,0.0,73,0.00,CLR,,0.00,WeatherDisplay:10.37,2013-12-11 12:06:00,
2013-12-11 07:11:00,19.5,12.3,30.19,NNW,337,1.0,1.0,73,0.00,CLR,,0.00,WeatherDisplay:10.37,2013-12-11 12:11:00,
2013-12-11 07:16:00,19.6,12.3,30.19,NW,313,2.3,0.0,73,0.00,CLR,,0.00,WeatherDisplay:10.37,2013-12-11 12:16:00,
2013-12-11 07:21:00,19.5,12.3,30.19,ENE,75,0.0,0.0,73,0.00,CLR,,0.00,WeatherDisplay:10.37,2013-12-11 12:21:00,
2013-12-11 07:26:00,19.5,12.3,30.20,WSW,240,0.0,0.0,73,0.00,CLR,,0.00,WeatherDisplay:10.37,2013-12-11 12:26:00,
2013-12-11 07:31:00,19.5,12.3,30.20,SW,215,0.0,0.0,73,0.00,CLR,,0.00,WeatherDisplay:10.37,2013-12-11 12:31:00,
2013-12-11 07:36:00,19.6,12.3,30.20,West,266,1.1,0.0,73,0.00,CLR,,0.00,WeatherDisplay:10.37,2013-12-11 12:36:00,
2013-12-11 07:41:00,19.7,12.4,30.20,WSW,252,3.5,3.5,73,0.00,CLR,,0.00,WeatherDisplay:10.37,2013-12-11 12:41:00,
2013-12-11 07:46:00,19.9,12.3,30.20,North,10,3.5,3.5,72,0.00,CLR,,0.00,WeatherDisplay:10.37,2013-12-11 12:46:00,
2013-12-11 07:51:00,20.1,12.2,30.21,WNW,300,3.5,3.5,71,0.00,CLR,,0.00,WeatherDisplay:10.37,2013-12-11 12:51:00,
2013-12-11 07:56:00,20.2,12.3,30.21,West,271,0.0,0.0,71,0.00,CLR,,0.00,WeatherDisplay:10.37,2013-12-11 12:56:00,
2013-12-11 08:01:00,20.3,12.4,30.21,NE,39,4.6,4.6,71,0.00,CLR,,0.00,WeatherDisplay:10.37,2013-12-11 13:01:00,
2013-12-11 08:06:00,20.3,12.7,30.21,WSW,241,0.0,0.0,72,0.00,CLR,,0.00,WeatherDisplay:10.37,2013-12-11 13:06:00,
2013-12-11 08:11:00,20.4,12.5,30.21,West,266,0.0,0.0,71,0.00,CLR,,0.00,WeatherDisplay:10.37,2013-12-11 13:11:00,
2013-12-11 08:16:00,20.4,12.5,30.21,NNE,27,0.0,0.0,71,0.00,CLR,,0.00,WeatherDisplay:10.37,2013-12-11 13:16:00,
2013-12-11 08:22:00,20.4,12.5,30.22,SW,226,0.0,0.0,71,0.00,CLR,,0.00,WeatherDisplay:10.37,2013-12-11 13:22:00,
2013-12-11 08:27:00,20.5,12.6,30.22,SW,222,0.0,0.0,71,0.00,CLR,,0.00,WeatherDisplay:10.37,2013-12-11 13:27:00,
2013-12-11 08:32:00,20.6,12.7,30.22,NW,324,2.0,2.0,71,0.00,CLR,,0.00,WeatherDisplay:10.37,2013-12-11 13:32:00,
2013-12-11 08:37:00,20.9,12.6,30.22,WNW,287,1.1,0.0,70,0.00,CLR,,0.00,WeatherDisplay:10.37,2013-12-11 13:37:00,
2013-12-11 08:42:00,21.2,12.9,30.22,West,280,1.1,0.0,70,0.00,CLR,,0.00,WeatherDisplay:10.37,2013-12-11 13:42:00,
2013-12-11 08:47:00,21.4,12.8,30.23,WSW,258,2.0,0.0,69,0.00,CLR,,0.00,WeatherDisplay:10.37,2013-12-11 13:47:00,
2013-12-11 08:52:00,21.6,12.7,30.23,WNW,287,3.5,3.5,68,0.00,CLR,,0.00,WeatherDisplay:10.37,2013-12-11 13:52:00,
2013-12-11 08:57:00,21.9,13.0,30.23,SSE,150,0.0,0.0,68,0.00,CLR,,0.00,WeatherDisplay:10.37,2013-12-11 13:57:00,
2013-12-11 09:02:00,22.0,12.7,30.23,WSW,257,2.3,2.3,67,0.00,CLR,,0.00,WeatherDisplay:10.37,2013-12-11 14:02:00,
2013-12-11 09:07:00,22.2,12.9,30.23,West,273,2.3,2.3,67,0.00,CLR,,0.00,WeatherDisplay:10.37,2013-12-11 14:07:00,
2013-12-11 09:12:00,22.3,13.0,30.23,North,360,4.6,4.6,67,0.00,CLR,,0.00,WeatherDisplay:10.37,2013-12-11 14:12:00,
2013-12-11 09:17:00,22.4,12.4,30.23,West,278,2.3,2.3,65,0.00,CLR,,0.00,WeatherDisplay:10.37,2013-12-11 14:17:00,
2013-12-11 09:22:00,22.7,12.3,30.23,West,280,3.5,3.5,64,0.00,CLR,,0.00,WeatherDisplay:10.37,2013-12-11 14:22:00,
2013-12-11 09:27:00,22.9,12.5,30.23,NW,314,3.5,3.5,64,0.00,CLR,,0.00,WeatherDisplay:10.37,2013-12-11 14:27:00,
2013-12-11 09:32:00,23.1,12.4,30.23,WNW,289,7.0,7.0,63,0.00,CLR,,0.00,WeatherDisplay:10.37,2013-12-11 14:32:00,
2013-12-11 09:37:00,23.3,12.2,30.23,NW,326,3.5,3.5,62,0.00,CLR,,0.00,WeatherDisplay:10.37,2013-12-11 14:37:00,
2013-12-11 09:42:00,23.5,12.7,30.22,West,278,4.0,4.0,63,0.00,CLR,,0.00,WeatherDisplay:10.37,2013-12-11 14:42:00,
2013-12-11 09:47:00,23.6,12.5,30.22,WNW,286,3.5,3.5,62,0.00,CLR,,0.00,WeatherDisplay:10.37,2013-12-11 14:47:00,
2013-12-11 09:52:00,23.7,12.2,30.22,WSW,250,8.1,8.1,61,0.00,CLR,,0.00,WeatherDisplay:10.37,2013-12-11 14:52:00,
2013-12-11 09:57:00,23.8,12.3,30.22,NNW,343,3.0,3.0,61,0.00,CLR,,0.00,WeatherDisplay:10.37,2013-12-11 14:57:00,
2013-12-11 10:02:00,24.0,12.9,30.23,WSW,238,3.5,3.5,62,0.00,CLR,,0.00,WeatherDisplay:10.37,2013-12-11 15:02:00,
2013-12-11 10:07:00,24.0,12.5,30.23,West,280,4.6,4.6,61,0.00,CLR,,0.00,WeatherDisplay:10.37,2013-12-11 15:07:00,
2013-12-11 10:12:00,24.3,13.1,30.23,West,278,4.6,4.6,62,0.00,CLR,,0.00,WeatherDisplay:10.37,2013-12-11 15:12:00,
2013-12-11 10:17:00,24.4,12.9,30.23,WSW,256,6.9,6.9,61,0.00,CLR,,0.00,WeatherDisplay:10.37,2013-12-11 15:17:00,
2013-12-11 10:22:00,24.4,13.6,30.23,SW,228,3.5,3.5,63,0.00,CLR,,0.00,WeatherDisplay:10.37,2013-12-11 15:22:00,
2013-12-11 10:27:00,24.4,12.9,30.23,WNW,290,8.1,8.1,61,0.00,CLR,,0.00,WeatherDisplay:10.37,2013-12-11 15:27:00,
2013-12-11 10:32:00,24.5,13.0,30.23,NNW,331,4.6,4.6,61,0.00,CLR,,0.00,WeatherDisplay:10.37,2013-12-11 15:32:00,
2013-12-11 10:37:00,24.7,13.5,30.23,NW,307,6.9,6.9,62,0.00,CLR,,0.00,WeatherDisplay:10.37,2013-12-11 15:37:00,
2013-12-11 10:42:00,24.7,13.1,30.23,NNW,335,8.0,8.0,61,0.00,CLR,,0.00,WeatherDisplay:10.37,2013-12-11 15:42:00,
2013-12-11 10:47:00,24.8,13.6,30.23,WNW,288,2.0,2.0,62,0.00,CLR,,0.00,WeatherDisplay:10.37,2013-12-11 15:47:00,
2013-12-11 10:52:00,24.9,14.1,30.23,West,267,2.3,0.0,63,0.00,CLR,,0.00,WeatherDisplay:10.37,2013-12-11 15:52:00,
2013-12-11 10:57:00,25.0,13.8,30.23,West,266,3.5,3.5,62,0.00,CLR,,0.00,WeatherDisplay:10.37,2013-12-11 15:57:00,
2013-12-11 11:02:00,25.1,13.9,30.23,NW,321,3.5,3.7,62,0.00,CLR,,0.00,WeatherDisplay:10.37,2013-12-11 16:02:00,
2013-12-11 11:07:00,25.1,14.6,30.22,WSW,243,1.1,0.0,64,0.00,CLR,,0.00,WeatherDisplay:10.37,2013-12-11 16:07:00,
2013-12-11 11:12:00,25.1,13.9,30.22,West,273,5.8,5.8,62,0.00,CLR,,0.00,WeatherDisplay:10.37,2013-12-11 16:12:00,
2013-12-11 11:17:00,25.0,13.8,30.22,SSW,208,8.1,8.1,62,0.00,CLR,,0.00,WeatherDisplay:10.37,2013-12-11 16:17:00,
2013-12-11 11:22:00,25.0,14.5,30.22,WNW,298,1.0,0.0,64,0.00,CLR,,0.00,WeatherDisplay:10.37,2013-12-11 16:22:00,
2013-12-11 11:27:00,25.1,14.6,30.22,West,267,5.8,5.8,64,0.00,CLR,,0.00,WeatherDisplay:10.37,2013-12-11 16:27:00,
2013-12-11 11:32:00,25.3,15.2,30.21,WSW,258,3.5,3.5,65,0.00,CLR,,0.00,WeatherDisplay:10.37,2013-12-11 16:32:00,
2013-12-11 11:37:00,25.5,15.4,30.21,SW,222,3.5,3.5,65,0.00,CLR,,0.00,WeatherDisplay:10.37,2013-12-11 16:37:00,
2013-12-11 11:42:00,25.9,16.4,30.21,SW,229,2.3,2.3,67,0.00,CLR,,0.00,WeatherDisplay:10.37,2013-12-11 16:42:00,
2013-12-11 11:47:00,26.1,16.3,30.20,South,181,2.3,0.0,66,0.00,CLR,,0.00,WeatherDisplay:10.37,2013-12-11 16:47:00,
2013-12-11 11:52:00,26.3,16.8,30.20,SW,227,0.0,0.5,67,0.00,CLR,,0.00,WeatherDisplay:10.37,2013-12-11 16:52:00,
2013-12-11 11:57:00,26.3,16.8,30.20,SW,222,0.0,0.0,67,0.00,CLR,,0.00,WeatherDisplay:10.37,2013-12-11 16:57:00,
2013-12-11 12:02:00,26.5,17.4,30.20,WSW,252,3.5,3.5,68,0.00,CLR,,0.00,WeatherDisplay:10.37,2013-12-11 17:02:00,
2013-12-11 12:07:00,26.3,17.2,30.20,NNE,23,4.6,4.6,68,0.00,CLR,,0.00,WeatherDisplay:10.37,2013-12-11 17:07:00,
2013-12-11 12:12:00,25.9,17.1,30.20,WSW,249,2.3,0.0,69,0.00,CLR,,0.00,WeatherDisplay:10.37,2013-12-11 17:12:00,
2013-12-11 12:18:00,25.9,17.1,30.20,WNW,287,3.5,3.5,69,0.00,CLR,,0.00,WeatherDisplay:10.37,2013-12-11 17:18:00,
2013-12-11 12:23:00,25.9,17.8,30.20,SW,225,0.0,0.0,71,0.00,CLR,,0.00,WeatherDisplay:10.37,2013-12-11 17:23:00,
2013-12-11 12:28:00,25.9,17.5,30.20,WSW,257,2.3,2.3,70,0.00,CLR,,0.00,WeatherDisplay:10.37,2013-12-11 17:28:00,
2013-12-11 12:33:00,25.8,18.0,30.20,SE,146,4.6,4.6,72,0.00,CLR,,0.00,WeatherDisplay:10.37,2013-12-11 17:33:00,
2013-12-11 12:38:00,25.7,17.9,30.20,West,259,0.0,0.0,72,0.00,CLR,,0.00,WeatherDisplay:10.37,2013-12-11 17:38:00,
2013-12-11 12:43:00,25.6,18.1,30.19,NNW,347,3.5,3.5,73,0.00,CLR,,0.00,WeatherDisplay:10.37,2013-12-11 17:43:00,
2013-12-11 12:48:00,25.7,18.6,30.20,West,259,0.0,0.0,74,0.00,CLR,,0.00,WeatherDisplay:10.37,2013-12-11 17:48:00,
2013-12-11 12:53:00,25.8,18.7,30.19,West,263,0.0,0.0,74,0.00,CLR,,0.00,WeatherDisplay:10.37,2013-12-11 17:53:00,
2013-12-11 12:58:00,25.8,18.7,30.19,West,271,2.3,2.3,74,0.00,CLR,,0.00,WeatherDisplay:10.37,2013-12-11 17:58:00,
2013-12-11 13:03:00,25.7,18.6,30.19,SW,225,4.0,4.0,74,0.00,CLR,,0.00,WeatherDisplay:10.37,2013-12-11 18:03:00,
2013-12-11 13:08:00,25.8,18.7,30.19,WSW,249,2.3,2.3,74,0.00,CLR,,0.00,WeatherDisplay:10.37,2013-12-11 18:08:00,
2013-12-11 13:13:00,25.7,18.9,30.19,South,176,4.6,4.6,75,0.00,CLR,,0.00,WeatherDisplay:10.37,2013-12-11 18:13:00,
2013-12-11 13:18:00,25.6,19.1,30.19,WNW,287,1.1,0.0,76,0.00,CLR,,0.00,WeatherDisplay:10.37,2013-12-11 18:18:00,
2013-12-11 13:23:00,25.7,19.8,30.19,West,274,0.0,0.0,78,0.00,CLR,,0.00,WeatherDisplay:10.37,2013-12-11 18:23:00,
2013-12-11 13:28:00,25.7,20.1,30.19,SSW,201,5.8,5.8,79,0.00,CLR,,0.00,WeatherDisplay:10.37,2013-12-11 18:28:00,
2013-12-11 13:33:00,25.8,19.9,30.19,WNW,283,6.9,6.9,78,0.00,CLR,,0.00,WeatherDisplay:10.37,2013-12-11 18:33:00,
2013-12-11 13:38:00,25.5,20.2,30.19,WNW,299,2.3,2.3,80,0.00,CLR,,0.00,WeatherDisplay:10.37,2013-12-11 18:38:00,
2013-12-11 13:43:00,25.5,20.2,30.19,SE,124,4.6,4.6,80,0.00,CLR,,0.00,WeatherDisplay:10.37,2013-12-11 18:43:00,
2013-12-11 13:48:00,25.4,20.1,30.18,SW,231,0.0,0.0,80,0.00,CLR,,0.00,WeatherDisplay:10.37,2013-12-11 18:48:00,
2013-12-11 13:53:00,25.5,20.5,30.18,WSW,250,0.0,0.0,81,0.00,CLR,,0.00,WeatherDisplay:10.37,2013-12-11 18:53:00,
2013-12-11 13:58:00,25.5,19.9,30.18,West,276,3.5,3.5,79,0.00,CLR,,0.00,WeatherDisplay:10.37,2013-12-11 18:58:00,
2013-12-11 14:03:00,25.5,19.9,30.18,West,273,3.5,3.5,79,0.00,CLR,,0.00,WeatherDisplay:10.37,2013-12-11 19:03:00,
2013-12-11 14:08:00,25.6,20.0,30.18,WSW,252,0.0,0.0,79,0.00,CLR,,0.00,WeatherDisplay:10.37,2013-12-11 19:08:00,
2013-12-11 14:13:00,25.7,19.8,30.18,WNW,297,8.1,8.1,78,0.00,CLR,,0.00,WeatherDisplay:10.37,2013-12-11 19:13:00,
2013-12-11 14:18:00,25.7,20.1,30.18,SSW,200,4.6,4.6,79,0.00,CLR,,0.00,WeatherDisplay:10.37,2013-12-11 19:18:00,
2013-12-11 14:23:00,25.6,20.0,30.18,NW,323,3.5,3.5,79,0.00,CLR,,0.00,WeatherDisplay:10.37,2013-12-11 19:23:00,
2013-12-11 14:28:00,25.5,19.6,30.18,West,263,6.9,6.9,78,0.00,CLR,,0.00,WeatherDisplay:10.37,2013-12-11 19:28:00,
2013-12-11 14:33:00,25.5,19.9,30.18,NNW,330,6.0,6.0,79,0.00,CLR,,0.00,WeatherDisplay:10.37,2013-12-11 19:33:00,
2013-12-11 14:38:00,25.4,19.8,30.18,NW,308,3.5,3.5,79,0.00,CLR,,0.00,WeatherDisplay:10.37,2013-12-11 19:38:00,
2013-12-11 14:43:00,25.3,19.7,30.19,West,271,3.5,3.5,79,0.00,CLR,,0.00,WeatherDisplay:10.37,2013-12-11 19:43:00,
2013-12-11 14:48:00,25.4,19.8,30.19,NNE,32,5.8,5.8,79,0.00,CLR,,0.00,WeatherDisplay:10.37,2013-12-11 19:48:00,
2013-12-11 14:53:00,25.3,20.3,30.19,SW,235,3.5,3.5,81,0.00,CLR,,0.00,WeatherDisplay:10.37,2013-12-11 19:53:00,
2013-12-11 14:58:00,25.1,20.1,30.19,WSW,250,3.5,3.5,81,0.00,CLR,,0.00,WeatherDisplay:10.37,2013-12-11 19:58:00,
2013-12-11 15:03:00,25.1,20.7,30.19,South,174,2.3,2.3,83,0.00,CLR,,0.00,WeatherDisplay:10.37,2013-12-11 20:03:00,
2013-12-11 15:08:00,24.8,20.4,30.19,West,259,8.1,8.1,83,0.00,CLR,,0.00,WeatherDisplay:10.37,2013-12-11 20:08:00,
2013-12-11 15:13:00,24.7,20.6,30.19,West,273,3.5,3.5,84,0.00,CLR,,0.00,WeatherDisplay:10.37,2013-12-11 20:13:00,
2013-12-11 15:18:00,24.5,19.8,30.19,West,277,4.6,4.6,82,0.00,CLR,,0.00,WeatherDisplay:10.37,2013-12-11 20:18:00,
2013-12-11 15:23:00,24.5,20.1,30.19,WNW,282,1.1,1.1,83,0.00,CLR,,0.00,WeatherDisplay:10.37,2013-12-11 20:23:00,
2013-12-11 15:28:00,24.6,20.2,30.19,East,91,3.5,3.5,83,0.00,CLR,,0.00,WeatherDisplay:10.37,2013-12-11 20:28:00,
2013-12-11 15:33:00,24.4,19.7,30.18,North,360,5.0,5.0,82,0.00,CLR,,0.00,WeatherDisplay:10.37,2013-12-11 20:33:00,
2013-12-11 15:38:00,24.3,19.3,30.18,West,274,2.3,2.3,81,0.00,CLR,,0.00,WeatherDisplay:10.37,2013-12-11 20:38:00,
2013-12-11 15:43:00,24.4,19.7,30.18,SW,235,3.5,3.5,82,0.00,CLR,,0.00,WeatherDisplay:10.37,2013-12-11 20:43:00,
2013-12-11 15:48:00,24.4,19.4,30.18,ENE,75,1.1,0.0,81,0.00,CLR,,0.00,WeatherDisplay:10.37,2013-12-11 20:48:00,
2013-12-11 15:53:00,24.3,19.0,30.18,WSW,258,4.6,4.6,80,0.00,CLR,,0.00,WeatherDisplay:10.37,2013-12-11 20:53:00,
2013-12-11 15:58:00,24.2,18.9,30.19,SSW,197,3.5,3.5,80,0.00,CLR,,0.00,WeatherDisplay:10.37,2013-12-11 20:58:00,
2013-12-11 16:03:00,24.2,18.6,30.18,WSW,240,6.9,6.9,79,0.00,CLR,,0.00,WeatherDisplay:10.37,2013-12-11 21:03:00,
2013-12-11 16:08:00,24.1,18.5,30.18,SW,214,2.3,2.3,79,0.00,CLR,,0.00,WeatherDisplay:10.37,2013-12-11 21:08:00,
2013-12-11 16:13:00,24.0,18.4,30.18,West,259,3.0,3.0,79,0.00,CLR,,0.00,WeatherDisplay:10.37,2013-12-11 21:13:00,
2013-12-11 16:18:00,24.0,18.4,30.19,WNW,283,3.5,3.5,79,0.00,CLR,,0.00,WeatherDisplay:10.37,2013-12-11 21:18:00,
2013-12-11 16:23:00,23.9,18.6,30.19,West,259,0.0,0.0,80,0.00,CLR,,0.00,WeatherDisplay:10.37,2013-12-11 21:23:00,
2013-12-11 16:28:00,23.8,18.2,30.19,West,277,3.5,3.5,79,0.00,CLR,,0.00,WeatherDisplay:10.37,2013-12-11 21:28:00,
2013-12-11 16:33:00,23.8,18.5,30.19,SW,215,3.5,3.5,80,0.00,CLR,,0.00,WeatherDisplay:10.37,2013-12-11 21:33:00,
2013-12-11 16:38:00,23.7,18.1,30.19,ESE,114,2.3,2.3,79,0.00,CLR,,0.00,WeatherDisplay:10.37,2013-12-11 21:38:00,
2013-12-11 16:43:00,23.6,18.0,30.20,WNW,290,2.0,2.0,79,0.00,CLR,,0.00,WeatherDisplay:10.37,2013-12-11 21:43:00,
2013-12-11 16:48:00,23.6,17.7,30.20,West,265,12.7,12.7,78,0.00,CLR,,0.00,WeatherDisplay:10.37,2013-12-11 21:48:00,
2013-12-11 16:53:00,23.6,18.0,30.20,NNE,20,1.1,0.0,79,0.00,CLR,,0.00,WeatherDisplay:10.37,2013-12-11 21:53:00,
2013-12-11 16:58:00,23.5,17.9,30.20,WSW,249,10.4,10.4,79,0.00,CLR,,0.00,WeatherDisplay:10.37,2013-12-11 21:58:00,
2013-12-11 17:03:00,23.4,18.1,30.20,WNW,286,2.3,2.3,80,0.00,,,0.00,WeatherDisplay:10.37,2013-12-11 22:03:00,
2013-12-11 17:08:00,23.3,18.3,30.21,West,265,5.8,5.8,81,0.00,,,0.00,WeatherDisplay:10.37,2013-12-11 22:08:00,
2013-12-11 17:13:00,23.2,18.2,30.21,West,274,2.3,0.0,81,0.00,,,0.00,WeatherDisplay:10.37,2013-12-11 22:13:00,
2013-12-11 17:18:00,23.2,18.5,30.21,WNW,286,6.9,6.9,82,0.00,,,0.00,WeatherDisplay:10.37,2013-12-11 22:18:00,
2013-12-11 17:23:00,23.1,19.0,30.21,WSW,255,0.0,0.0,84,0.00,,,0.00,WeatherDisplay:10.37,2013-12-11 22:23:00,
2013-12-11 17:28:00,23.0,18.9,30.21,WNW,297,5.8,5.8,84,0.00,,,0.00,WeatherDisplay:10.37,2013-12-11 22:28:00,
2013-12-11 17:33:00,22.8,19.2,30.21,SW,228,0.0,0.1,86,0.00,,,0.00,WeatherDisplay:10.37,2013-12-11 22:33:00,
2013-12-11 17:38:00,22.7,19.1,30.21,West,266,0.0,0.0,86,0.00,,,0.00,WeatherDisplay:10.37,2013-12-11 22:38:00,
2013-12-11 17:43:00,22.6,19.3,30.21,WSW,243,2.3,0.0,87,0.00,,,0.00,WeatherDisplay:10.37,2013-12-11 22:43:00,
2013-12-11 17:49:00,22.5,19.2,30.21,WNW,283,2.3,2.3,87,0.00,,,0.00,WeatherDisplay:10.37,2013-12-11 22:49:00,
2013-12-11 17:54:00,22.4,19.4,30.22,SE,126,3.5,3.5,88,0.00,,,0.00,WeatherDisplay:10.37,2013-12-11 22:54:00,
2013-12-11 17:59:00,22.4,19.4,30.22,WSW,241,0.0,0.0,88,0.00,,,0.00,WeatherDisplay:10.37,2013-12-11 22:59:00,
2013-12-11 18:04:00,22.4,19.4,30.22,West,278,2.3,2.3,88,0.00,,,0.00,WeatherDisplay:10.37,2013-12-11 23:04:00,
2013-12-11 18:09:00,22.4,19.6,30.22,NNW,340,0.0,0.0,89,0.00,,,0.00,WeatherDisplay:10.37,2013-12-11 23:09:00,
2013-12-11 18:14:00,22.4,19.6,30.22,WNW,290,1.1,0.0,89,0.00,,,0.00,WeatherDisplay:10.37,2013-12-11 23:14:00,
2013-12-11 18:19:00,22.3,19.6,30.22,WSW,246,0.0,0.0,89,0.00,,,0.00,WeatherDisplay:10.37,2013-12-11 23:19:00,
2013-12-11 18:24:00,22.3,19.6,30.22,SW,225,0.0,0.0,89,0.00,,,0.00,WeatherDisplay:10.37,2013-12-11 23:24:00,
2013-12-11 18:29:00,22.3,19.6,30.22,WSW,238,2.3,0.0,89,0.00,,,0.00,WeatherDisplay:10.37,2013-12-11 23:29:00,
2013-12-11 18:34:00,22.1,19.4,30.22,SW,235,3.5,3.5,89,0.00,,,0.00,WeatherDisplay:10.37,2013-12-11 23:34:00,
2013-12-11 18:39:00,21.9,18.9,30.22,East,99,1.1,0.0,88,0.00,,,0.00,WeatherDisplay:10.37,2013-12-11 23:39:00,
2013-12-11 18:44:00,21.7,18.7,30.22,WSW,250,0.0,0.0,88,0.00,,,0.00,WeatherDisplay:10.37,2013-12-11 23:44:00,
2013-12-11 18:49:00,21.6,18.3,30.23,SSW,207,5.8,5.8,87,0.00,,,0.00,WeatherDisplay:10.37,2013-12-11 23:49:00,
2013-12-11 18:54:00,21.6,18.1,30.23,WNW,291,3.5,3.5,86,0.00,,,0.00,WeatherDisplay:10.37,2013-12-11 23:54:00,
2013-12-11 18:59:00,21.6,18.1,30.23,West,269,0.0,0.0,86,0.00,,,0.00,WeatherDisplay:10.37,2013-12-11 23:59:00,
2013-12-11 19:04:00,21.4,17.9,30.23,SW,233,2.3,2.3,86,0.00,CLR,,0.00,WeatherDisplay:10.37,2013-12-12 00:04:00,
2013-12-11 19:09:00,21.3,17.8,30.23,WSW,239,1.1,1.1,86,0.00,CLR,,0.00,WeatherDisplay:10.37,2013-12-12 00:09:00,
2013-12-11 19:14:00,21.2,17.7,30.23,WNW,284,0.0,0.0,86,0.00,CLR,,0.00,WeatherDisplay:10.37,2013-12-12 00:14:00,
2013-12-11 19:19:00,21.0,17.5,30.23,West,265,2.0,2.0,86,0.00,CLR,,0.00,WeatherDisplay:10.37,2013-12-12 00:19:00,
2013-12-11 19:24:00,20.9,17.4,30.23,West,277,0.0,0.0,86,0.00,CLR,,0.00,WeatherDisplay:10.37,2013-12-12 00:24:00,
2013-12-11 19:29:00,20.6,17.1,30.23,North,5,1.1,1.1,86,0.00,CLR,,0.00,WeatherDisplay:10.37,2013-12-12 00:29:00,
2013-12-11 19:34:00,20.5,17.0,30.23,WSW,250,3.5,3.5,86,0.00,CLR,,0.00,WeatherDisplay:10.37,2013-12-12 00:34:00,
2013-12-11 19:39:00,20.5,17.0,30.24,WSW,252,1.1,1.1,86,0.00,CLR,,0.00,WeatherDisplay:10.37,2013-12-12 00:39:00,
2013-12-11 19:44:00,20.5,16.7,30.24,WSW,258,2.3,2.3,85,0.00,CLR,,0.00,WeatherDisplay:10.37,2013-12-12 00:44:00,
2013-12-11 19:49:00,20.5,16.7,30.24,WNW,288,3.5,3.5,85,0.00,CLR,,0.00,WeatherDisplay:10.37,2013-12-12 00:49:00,
2013-12-11 19:54:00,20.4,16.6,30.24,WSW,252,4.6,4.6,85,0.00,CLR,,0.00,WeatherDisplay:10.37,2013-12-12 00:54:00,
2013-12-11 19:59:00,20.6,16.3,30.24,West,276,4.6,4.6,83,0.00,CLR,,0.00,WeatherDisplay:10.37,2013-12-12 00:59:00,
2013-12-11 20:04:00,20.6,16.0,30.24,WNW,283,5.8,5.8,82,0.00,,,0.00,WeatherDisplay:10.37,2013-12-12 01:04:00,
2013-12-11 20:09:00,20.7,15.8,30.24,WNW,298,3.5,3.5,81,0.00,,,0.00,WeatherDisplay:10.37,2013-12-12 01:09:00,
2013-12-11 20:14:00,20.8,15.6,30.24,NNW,329,4.0,4.0,80,0.00,,,0.00,WeatherDisplay:10.37,2013-12-12 01:14:00,
2013-12-11 20:19:00,20.7,15.5,30.24,NW,321,4.0,4.0,80,0.00,,,0.00,WeatherDisplay:10.37,2013-12-12 01:19:00,
2013-12-11 20:24:00,20.6,15.1,30.24,SW,219,1.1,0.0,79,0.00,,,0.00,WeatherDisplay:10.37,2013-12-12 01:24:00,
2013-12-11 20:29:00,20.3,15.1,30.24,NNW,329,3.0,3.0,80,0.00,,,0.00,WeatherDisplay:10.37,2013-12-12 01:29:00,
2013-12-11 20:34:00,20.1,14.6,30.24,WSW,242,4.6,4.6,79,0.00,,,0.00,WeatherDisplay:10.37,2013-12-12 01:34:00,
2013-12-11 20:39:00,20.1,14.3,30.24,West,271,6.9,6.9,78,0.00,,,0.00,WeatherDisplay:10.37,2013-12-12 01:39:00,
2013-12-11 20:44:00,20.1,14.0,30.24,SW,235,3.5,3.5,77,0.00,,,0.00,WeatherDisplay:10.37,2013-12-12 01:44:00,
2013-12-11 20:49:00,20.0,13.6,30.24,NNW,328,4.6,4.6,76,0.00,,,0.00,WeatherDisplay:10.37,2013-12-12 01:49:00,
2013-12-11 20:54:00,19.7,13.4,30.24,WNW,285,2.3,2.3,76,0.00,,,0.00,WeatherDisplay:10.37,2013-12-12 01:54:00,
2013-12-11 20:59:00,19.5,13.5,30.24,WSW,252,0.0,0.0,77,0.00,,,0.00,WeatherDisplay:10.37,2013-12-12 01:59:00,
2013-12-11 21:04:00,19.5,13.2,30.25,WSW,249,3.5,3.5,76,0.00,,,0.00,WeatherDisplay:10.37,2013-12-12 02:04:00,
2013-12-11 21:09:00,19.3,13.0,30.25,WSW,255,1.1,1.1,76,0.00,,,0.00,WeatherDisplay:10.37,2013-12-12 02:09:00,
2013-12-11 21:15:00,19.1,12.8,30.25,WNW,289,4.6,4.6,76,0.00,,,0.00,WeatherDisplay:10.37,2013-12-12 02:15:00,
2013-12-11 21:20:00,19.2,12.3,30.25,West,268,3.5,0.0,74,0.00,,,0.00,WeatherDisplay:10.37,2013-12-12 02:20:00,
2013-12-11 21:25:00,19.1,12.5,30.25,SE,132,0.0,0.0,75,0.00,,,0.00,WeatherDisplay:10.37,2013-12-12 02:25:00,
2013-12-11 21:30:00,18.9,12.3,30.25,NW,318,1.1,1.1,75,0.00,,,0.00,WeatherDisplay:10.37,2013-12-12 02:30:00,
2013-12-11 21:35:00,18.7,12.1,30.25,WSW,253,0.0,0.0,75,0.00,,,0.00,WeatherDisplay:10.37,2013-12-12 02:35:00,
2013-12-11 21:40:00,18.6,12.0,30.25,West,263,0.0,0.0,75,0.00,,,0.00,WeatherDisplay:10.37,2013-12-12 02:40:00,
2013-12-11 21:45:00,18.5,12.2,30.26,WSW,249,0.0,0.0,76,0.00,,,0.00,WeatherDisplay:10.37,2013-12-12 02:45:00,
2013-12-11 21:50:00,18.3,12.0,30.26,NE,35,0.0,0.0,76,0.00,,,0.00,WeatherDisplay:10.37,2013-12-12 02:50:00,
2013-12-11 21:55:00,18.2,11.9,30.26,West,264,2.3,0.0,76,0.00,,,0.00,WeatherDisplay:10.37,2013-12-12 02:55:00,
2013-12-11 22:00:00,18.1,11.8,30.26,West,263,0.0,0.0,76,0.00,,,0.00,WeatherDisplay:10.37,2013-12-12 03:00:00,
2013-12-11 22:05:00,18.1,11.8,30.26,NW,318,4.0,4.0,76,0.00,,,0.00,WeatherDisplay:10.37,2013-12-12 03:05:00,
2013-12-11 22:10:00,18.0,11.7,30.26,WSW,242,2.0,2.0,76,0.00,,,0.00,WeatherDisplay:10.37,2013-12-12 03:10:00,
2013-12-11 22:15:00,18.0,11.4,30.26,SW,232,1.1,1.1,75,0.00,,,0.00,WeatherDisplay:10.37,2013-12-12 03:15:00,
2013-12-11 22:20:00,17.8,11.5,30.26,West,266,0.0,0.0,76,0.00,,,0.00,WeatherDisplay:10.37,2013-12-12 03:20:00,
2013-12-11 22:25:00,17.6,11.3,30.27,WNW,283,0.0,0.0,76,0.00,,,0.00,WeatherDisplay:10.37,2013-12-12 03:25:00,
2013-12-11 22:30:00,17.5,11.2,30.27,West,268,2.3,2.3,76,0.00,,,0.00,WeatherDisplay:10.37,2013-12-12 03:30:00,
2013-12-11 22:35:00,17.6,11.3,30.27,SE,135,0.0,0.0,76,0.00,,,0.00,WeatherDisplay:10.37,2013-12-12 03:35:00,
2013-12-11 22:40:00,17.5,11.2,30.27,SW,234,1.1,0.0,76,0.00,,,0.00,WeatherDisplay:10.37,2013-12-12 03:40:00,
2013-12-11 22:45:00,17.4,11.1,30.27,SW,236,0.0,0.0,76,0.00,,,0.00,WeatherDisplay:10.37,2013-12-12 03:45:00,
2013-12-11 22:50:00,17.1,11.1,30.27,WNW,285,1.1,0.0,77,0.00,,,0.00,WeatherDisplay:10.37,2013-12-12 03:50:00,
2013-12-11 22:55:00,17.1,11.1,30.27,WSW,250,3.5,3.5,77,0.00,,,0.00,WeatherDisplay:10.37,2013-12-12 03:55:00,
2013-12-11 23:00:00,17.2,11.2,30.27,WNW,285,1.1,1.1,77,0.00,,,0.00,WeatherDisplay:10.37,2013-12-12 04:00:00,
2013-12-11 23:05:00,17.2,11.2,30.27,WSW,249,1.0,0.0,77,0.00,,,0.00,WeatherDisplay:10.37,2013-12-12 04:05:00,
2013-12-11 23:10:00,17.1,11.1,30.27,WNW,290,2.3,2.3,77,0.00,,,0.00,WeatherDisplay:10.37,2013-12-12 04:10:00,
2013-12-11 23:15:00,17.0,11.0,30.27,West,268,2.3,2.3,77,0.00,,,0.00,WeatherDisplay:10.37,2013-12-12 04:15:00,
2013-12-11 23:20:00,16.7,10.7,30.27,WSW,241,0.0,0.0,77,0.00,,,0.00,WeatherDisplay:10.37,2013-12-12 04:20:00,
2013-12-11 23:25:00,16.6,10.9,30.27,WNW,287,1.1,0.0,78,0.00,,,0.00,WeatherDisplay:10.37,2013-12-12 04:25:00,
2013-12-11 23:30:00,16.7,10.7,30.27,NNE,18,1.1,1.1,77,0.00,,,0.00,WeatherDisplay:10.37,2013-12-12 04:30:00,
2013-12-11 23:35:00,16.7,10.7,30.27,West,263,0.0,0.0,77,0.00,,,0.00,WeatherDisplay:10.37,2013-12-12 04:35:00,
2013-12-11 23:40:00,16.6,10.6,30.28,ESE,113,1.1,1.1,77,0.00,,,0.00,WeatherDisplay:10.37,2013-12-12 04:40:00,
2013-12-11 23:45:00,16.5,10.5,30.28,NNE,30,1.1,0.0,77,0.00,,,0.00,WeatherDisplay:10.37,2013-12-12 04:45:00,
2013-12-11 23:50:00,16.5,10.8,30.28,WSW,257,0.0,0.0,78,0.00,,,0.00,WeatherDisplay:10.37,2013-12-12 04:50:00,
2013-12-11 23:55:00,16.7,11.0,30.28,WSW,248,0.0,0.0,78,0.00,,,0.00,WeatherDisplay:10.37,2013-12-12 04:55:00,